Time;durP1;ratioP1;P1;durP2;ratioP2;P2;SDS_P1;SDS_P2;PMS_P1;PMS_P2;Temp;Humidity;BMP_temperature;BMP_pressure;BME280_temperature;BME280_humidity;BME280_pressure;Samples;Min_cycle;Max_cycle;Signal;HPM_P1;HPM_P2
2024/03/02 00:00:51;;;;;;;28.73;25.83;;;8.20;85.80;;;;;;5075472;28;20174;-86
2024/03/02 00:03:18;;;;;;;28.30;25.30;;;8.20;85.90;;;;;;5075206;28;20281;-86
2024/03/02 00:05:48;;;;;;;28.63;25.77;;;8.20;86.00;;;;;;5093812;28;20175;-86
2024/03/02 00:08:23;;;;;;;29.83;26.63;;;8.20;86.10;;;;;;5093768;28;20212;-86
2024/03/02 00:10:49;;;;;;;29.77;26.67;;;8.20;86.20;;;;;;5093800;28;20245;-86
2024/03/02 00:13:14;;;;;;;29.53;26.30;;;8.20;86.30;;;;;;5093217;28;20213;-86
2024/03/02 00:15:42;;;;;;;29.67;26.40;;;8.20;86.40;;;;;;5093412;28;20194;-86
2024/03/02 00:18:13;;;;;;;29.37;26.27;;;8.20;86.50;;;;;;5093321;28;20194;-86
2024/03/02 00:20:40;;;;;;;30.90;26.43;;;8.20;86.60;;;;;;5093228;28;20170;-85
2024/03/02 00:23:07;;;;;;;30.80;27.50;;;8.20;86.60;;;;;;5093264;28;20190;-85
2024/03/02 00:25:48;;;;;;;29.33;26.20;;;8.20;86.50;;;;;;5075446;28;20177;-87
2024/03/02 00:28:22;;;;;;;32.20;27.40;;;8.20;86.60;;;;;;5093183;28;20579;-85
2024/03/02 00:30:55;;;;;;;32.13;28.57;;;8.20;86.50;;;;;;5075138;28;20163;-85
2024/03/02 00:33:22;;;;;;;32.43;26.90;;;8.30;86.40;;;;;;5075058;28;20621;-86
2024/03/02 00:35:49;;;;;;;30.13;27.03;;;8.20;86.50;;;;;;5093229;28;20202;-86
2024/03/02 00:38:17;;;;;;;30.07;26.87;;;8.30;86.40;;;;;;5075287;28;20209;-87
2024/03/02 00:40:44;;;;;;;34.57;30.87;;;8.30;86.30;;;;;;5093293;28;20638;-85
2024/03/02 00:43:41;;;;;;;36.97;33.07;;;8.30;86.20;;;;;;5093268;28;20269;-85
2024/03/02 00:46:06;;;;;;;37.80;33.67;;;8.30;86.30;;;;;;5075300;28;20662;-85
2024/03/02 00:48:35;;;;;;;38.23;34.20;;;8.30;86.20;;;;;;5093097;28;20213;-85
2024/03/02 00:51:04;;;;;;;37.80;34.20;;;8.30;86.00;;;;;;5093292;28;20167;-85
2024/03/02 00:53:31;;;;;;;37.80;33.77;;;8.40;86.00;;;;;;5074935;28;20186;-85
2024/03/02 00:55:56;;;;;;;37.73;34.13;;;8.30;85.90;;;;;;5092990;28;20187;-85
2024/03/02 00:58:22;;;;;;;37.07;33.60;;;8.20;86.10;;;;;;5074980;28;20178;-85
2024/03/02 01:00:48;;;;;;;37.03;33.03;;;8.30;86.20;;;;;;5074937;28;20171;-85
2024/03/02 01:03:13;;;;;;;38.13;34.47;;;8.10;86.20;;;;;;5076025;28;20202;-85
2024/03/02 01:05:42;;;;;;;38.50;34.73;;;8.20;86.50;;;;;;5096720;28;20198;-87
2024/03/02 01:08:09;;;;;;;39.43;35.63;;;8.20;86.50;;;;;;5078742;28;20291;-85
2024/03/02 01:10:34;;;;;;;39.47;35.77;;;8.10;86.50;;;;;;5078809;28;20556;-85
2024/03/02 01:13:00;;;;;;;39.03;35.50;;;8.20;86.50;;;;;;5078502;28;20194;-85
2024/03/02 01:15:25;;;;;;;40.50;36.53;;;8.30;86.50;;;;;;5078614;28;20795;-85
2024/03/02 01:17:51;;;;;;;39.63;36.03;;;8.30;86.30;;;;;;5078317;28;20206;-84
2024/03/02 01:20:17;;;;;;;40.27;36.30;;;8.30;86.10;;;;;;5096702;28;20166;-85
2024/03/02 01:22:42;;;;;;;38.83;35.33;;;8.30;86.30;;;;;;5096368;28;20182;-85
2024/03/02 01:25:08;;;;;;;38.40;34.80;;;8.30;86.00;;;;;;5099860;28;20554;-85
2024/03/02 01:27:34;;;;;;;39.40;35.50;;;8.20;86.00;;;;;;5103014;28;20167;-84
2024/03/02 01:29:59;;;;;;;38.77;35.17;;;8.10;86.40;;;;;;5103740;28;20659;-85
2024/03/02 01:32:25;;;;;;;39.27;35.50;;;8.20;86.40;;;;;;5102675;28;20229;-86
2024/03/02 01:34:51;;;;;;;40.07;36.33;;;8.10;86.40;;;;;;5102938;28;20191;-87
2024/03/02 01:37:16;;;;;;;39.53;35.73;;;8.10;86.60;;;;;;5084530;28;20167;-86
2024/03/02 01:39:42;;;;;;;40.70;36.77;;;8.00;86.70;;;;;;5103386;28;20190;-87
2024/03/02 01:42:07;;;;;;;38.97;35.37;;;8.20;86.90;;;;;;5084500;28;20294;-85
2024/03/02 01:44:33;;;;;;;40.40;36.50;;;8.20;86.70;;;;;;5103013;28;20607;-84
2024/03/02 01:46:58;;;;;;;41.63;37.63;;;8.10;86.80;;;;;;5084711;28;20179;-84
2024/03/02 01:49:24;;;;;;;39.83;36.13;;;8.10;86.90;;;;;;5103150;28;20201;-85
2024/03/02 01:51:49;;;;;;;41.07;37.07;;;8.20;87.10;;;;;;5102295;28;20647;-85
2024/03/02 01:54:15;;;;;;;41.67;37.77;;;8.10;86.90;;;;;;5102204;28;20779;-87
2024/03/02 01:56:41;;;;;;;39.10;35.20;;;8.20;86.90;;;;;;5102499;28;20183;-86
2024/03/02 01:59:06;;;;;;;41.67;37.63;;;8.20;86.80;;;;;;5103537;28;20185;-88
2024/03/02 02:01:32;;;;;;;40.60;36.67;;;8.30;86.90;;;;;;5084446;28;20259;-85
2024/03/02 02:03:58;;;;;;;41.03;37.03;;;8.30;86.60;;;;;;5103041;28;20178;-86
2024/03/02 02:06:23;;;;;;;40.70;36.80;;;8.40;86.50;;;;;;5103325;28;20174;-87
2024/03/02 02:08:49;;;;;;;42.10;38.27;;;8.40;86.20;;;;;;5102774;28;20179;-86
2024/03/02 02:11:16;;;;;;;41.87;37.60;;;8.30;86.30;;;;;;5084233;28;20232;-85
2024/03/02 02:13:41;;;;;;;42.53;38.43;;;8.40;86.40;;;;;;5084079;28;20174;-87
2024/03/02 02:16:07;;;;;;;42.90;38.43;;;8.60;86.30;;;;;;5101742;28;20225;-86
2024/03/02 02:18:33;;;;;;;42.10;38.03;;;8.50;86.10;;;;;;5084178;28;20175;-87
2024/03/02 02:20:59;;;;;;;41.77;37.53;;;8.50;86.10;;;;;;5087996;28;20181;-89
2024/03/02 02:23:25;;;;;;;42.37;38.13;;;8.60;86.20;;;;;;5109063;28;20198;-88
2024/03/02 02:25:50;;;;;;;41.43;37.43;;;8.50;86.10;;;;;;5109343;28;20564;-89
2024/03/02 02:28:16;;;;;;;41.53;37.23;;;8.50;86.20;;;;;;5109642;28;20232;-86
2024/03/02 02:30:44;;;;;;;42.43;38.30;;;8.60;86.20;;;;;;5108423;28;20212;-88
2024/03/02 02:33:10;;;;;;;42.50;38.20;;;8.50;86.20;;;;;;5109610;28;20225;-87
2024/03/02 02:35:35;;;;;;;41.23;37.13;;;8.40;86.10;;;;;;5109922;28;20206;-89
2024/03/02 02:38:02;;;;;;;41.37;37.07;;;8.50;86.50;;;;;;5108360;28;20182;-87
2024/03/02 02:40:30;;;;;;;40.67;36.67;;;8.50;86.30;;;;;;5108024;28;20167;-88
2024/03/02 02:42:56;;;;;;;32.40;28.80;;;8.20;86.50;;;;;;5107513;28;20187;-86
2024/03/02 02:45:22;;;;;;;33.77;28.90;;;8.20;86.90;;;;;;5108212;28;20194;-88
2024/03/02 02:47:47;;;;;;;34.20;29.33;;;8.20;87.10;;;;;;5090037;28;20179;-89
2024/03/02 02:50:13;;;;;;;34.77;30.20;;;8.20;87.00;;;;;;5108573;28;20190;-87
2024/03/02 02:52:40;;;;;;;33.13;29.53;;;8.10;87.20;;;;;;5109238;28;20214;-88
2024/03/02 02:55:08;;;;;;;34.73;30.53;;;8.20;87.40;;;;;;5108864;28;20210;-87
2024/03/02 02:57:40;;;;;;;34.90;31.07;;;8.30;87.10;;;;;;5108305;28;20550;-89
2024/03/02 03:00:10;;;;;;;34.07;30.43;;;8.30;86.90;;;;;;5089978;28;20191;-88
2024/03/02 03:02:43;;;;;;;35.90;30.03;;;8.40;87.00;;;;;;5107545;28;20255;-86
2024/03/02 03:05:10;;;;;;;38.07;31.27;;;8.50;86.60;;;;;;5090232;28;20187;-89
2024/03/02 03:07:36;;;;;;;37.97;31.83;;;8.50;86.50;;;;;;5108559;28;20174;-88
2024/03/02 03:10:03;;;;;;;34.67;30.97;;;8.40;86.60;;;;;;5109014;28;20190;-89
2024/03/02 03:12:29;;;;;;;36.27;30.33;;;8.50;86.60;;;;;;5089584;28;20202;-89
2024/03/02 03:14:55;;;;;;;33.60;29.37;;;8.50;86.50;;;;;;5108070;28;20190;-89
2024/03/02 03:17:24;;;;;;;37.80;30.60;;;8.40;86.60;;;;;;5107581;28;20175;-89
2024/03/02 03:19:50;;;;;;;33.20;29.60;;;8.40;86.70;;;;;;5108347;28;20170;-89
2024/03/02 03:22:16;;;;;;;33.67;28.60;;;8.30;86.70;;;;;;5108176;28;20199;-88
2024/03/02 03:24:41;;;;;;;30.83;27.53;;;8.30;86.70;;;;;;5107302;28;20182;-87
2024/03/02 03:27:07;;;;;;;34.17;29.20;;;8.40;86.60;;;;;;5107280;28;20175;-89
2024/03/02 03:29:32;;;;;;;34.23;29.23;;;8.40;86.40;;;;;;5108302;28;20174;-89
2024/03/02 03:31:58;;;;;;;34.23;27.93;;;8.40;86.40;;;;;;5107966;28;20277;-89
2024/03/02 03:34:23;;;;;;;31.80;28.30;;;8.40;86.30;;;;;;5107233;28;20234;-88
2024/03/02 03:36:49;;;;;;;32.97;28.23;;;8.40;86.20;;;;;;5107488;28;20221;-88
2024/03/02 03:39:14;;;;;;;31.73;28.33;;;8.30;86.20;;;;;;5089360;28;20264;-88
2024/03/02 03:41:43;;;;;;;32.57;29.00;;;8.30;86.40;;;;;;5107601;28;20191;-88
2024/03/02 03:44:09;;;;;;;31.40;28.00;;;8.30;86.50;;;;;;5107485;28;20175;-88
2024/03/02 03:46:34;;;;;;;39.70;35.47;;;8.30;86.30;;;;;;5106220;28;20167;-89
2024/03/02 03:49:00;;;;;;;38.73;34.67;;;8.20;86.30;;;;;;5107701;28;20175;-88
2024/03/02 03:51:25;;;;;;;40.03;35.90;;;8.20;86.60;;;;;;5106412;28;20302;-87
2024/03/02 03:53:51;;;;;;;39.97;35.93;;;8.30;86.70;;;;;;5106881;28;20163;-88
2024/03/02 03:56:17;;;;;;;38.67;34.80;;;8.30;86.30;;;;;;5108757;28;20283;-89
2024/03/02 03:58:42;;;;;;;41.23;37.03;;;8.30;86.40;;;;;;5090238;28;20188;-89
2024/03/02 04:01:08;;;;;;;40.60;36.50;;;8.30;86.40;;;;;;5107492;28;20169;-88
2024/03/02 04:03:33;;;;;;;39.77;35.60;;;8.30;86.40;;;;;;5108628;28;20167;-89
2024/03/02 04:05:59;;;;;;;41.43;37.33;;;8.40;86.30;;;;;;5105981;28;20592;-89
2024/03/02 04:08:24;;;;;;;40.33;36.33;;;8.40;86.00;;;;;;5108010;28;20185;-88
2024/03/02 04:10:50;;;;;;;41.30;36.83;;;8.30;86.00;;;;;;5106748;28;20182;-89
2024/03/02 04:13:15;;;;;;;40.30;36.13;;;8.30;86.10;;;;;;5107409;28;20229;-88
2024/03/02 04:15:41;;;;;;;41.70;37.63;;;8.10;86.30;;;;;;5108070;28;20237;-88
2024/03/02 04:18:07;;;;;;;41.10;37.10;;;8.20;86.60;;;;;;5107069;28;20175;-88
2024/03/02 04:20:32;;;;;;;41.63;37.40;;;8.20;86.40;;;;;;5107673;28;20167;-88
2024/03/02 04:22:58;;;;;;;41.60;37.37;;;8.30;86.30;;;;;;5107505;28;20635;-88
2024/03/02 04:25:23;;;;;;;41.53;37.33;;;8.20;86.40;;;;;;5106393;28;20202;-88
2024/03/02 04:27:49;;;;;;;41.30;37.07;;;8.10;86.40;;;;;;5106842;28;20182;-89
2024/03/02 04:30:14;;;;;;;42.10;37.87;;;8.20;86.60;;;;;;5106747;28;20699;-88
2024/03/02 04:32:40;;;;;;;39.57;35.77;;;8.10;86.60;;;;;;5107182;28;20250;-88
2024/03/02 04:35:08;;;;;;;41.63;36.87;;;8.10;86.70;;;;;;5108701;28;20262;-88
2024/03/02 04:37:34;;;;;;;40.30;36.37;;;8.00;86.80;;;;;;5106951;28;20221;-89
2024/03/02 04:40:00;;;;;;;39.50;35.20;;;8.00;86.90;;;;;;5111091;28;20171;-89
2024/03/02 04:42:25;;;;;;;38.80;34.63;;;8.00;86.90;;;;;;5112285;28;20191;-88
2024/03/02 04:44:51;;;;;;;39.00;34.93;;;8.00;87.00;;;;;;5112190;28;20179;-88
2024/03/02 04:47:17;;;;;;;39.23;34.90;;;7.90;87.00;;;;;;5092491;28;20174;-87
2024/03/02 04:49:42;;;;;;;42.53;35.93;;;7.90;87.10;;;;;;5110705;28;20243;-89
2024/03/02 04:52:08;;;;;;;41.00;36.60;;;7.90;87.10;;;;;;5107247;28;20289;-89
2024/03/02 04:55:09;;;;;;;40.10;35.87;;;7.80;87.20;;;;;;5109438;28;20199;-89
2024/03/02 04:57:19;;;;;;;40.43;35.37;;;7.60;87.30;;;;;;5109520;28;20174;-89
2024/03/02 04:59:45;;;;;;;40.97;35.63;;;7.50;87.80;;;;;;5092307;28;20178;-89
2024/03/02 05:02:10;;;;;;;41.90;37.37;;;7.60;88.10;;;;;;5112162;28;20197;-87
2024/03/02 05:04:36;;;;;;;39.40;35.17;;;7.70;88.20;;;;;;5110421;28;20253;-88
2024/03/02 05:07:01;;;;;;;43.23;36.80;;;7.60;87.80;;;;;;5110242;28;20320;-88
2024/03/02 05:09:27;;;;;;;42.50;38.10;;;7.70;88.10;;;;;;5110537;28;20174;-88
2024/03/02 05:14:38;;;;;;;43.07;38.37;;;7.80;87.70;;;;;;5109606;28;20198;-88
2024/03/02 05:17:04;;;;;;;40.93;36.50;;;7.80;87.50;;;;;;5091429;28;20171;-88
2024/03/02 05:19:29;;;;;;;42.57;38.17;;;7.70;87.50;;;;;;5110253;28;20171;-88
2024/03/02 05:21:55;;;;;;;41.03;36.60;;;7.70;87.60;;;;;;5111187;28;20201;-88
2024/03/02 05:24:20;;;;;;;42.37;36.10;;;7.60;87.80;;;;;;5091718;28;20190;-89
2024/03/02 05:26:46;;;;;;;41.97;35.47;;;7.60;87.80;;;;;;5109625;28;20175;-88
2024/03/02 05:29:12;;;;;;;40.77;36.43;;;7.60;87.90;;;;;;5109685;28;20205;-88
2024/03/02 05:31:37;;;;;;;41.17;36.83;;;7.60;87.90;;;;;;5111207;28;20206;-87
2024/03/02 05:34:03;;;;;;;40.83;36.50;;;7.60;87.90;;;;;;5110345;28;20246;-88
2024/03/02 05:36:29;;;;;;;45.53;38.03;;;7.60;87.90;;;;;;5109935;28;20286;-89
2024/03/02 05:38:54;;;;;;;42.73;36.33;;;7.60;87.90;;;;;;5110422;28;20195;-88
2024/03/02 05:41:20;;;;;;;43.10;38.30;;;7.50;87.90;;;;;;5109676;28;20175;-89
2024/03/02 05:43:45;;;;;;;34.57;29.33;;;7.30;87.80;;;;;;5109980;28;20177;-89
2024/03/02 05:46:11;;;;;;;38.47;30.60;;;7.20;88.10;;;;;;5109529;28;20174;-89
2024/03/02 05:48:37;;;;;;;37.73;31.73;;;7.10;88.30;;;;;;5109164;28;20552;-88
2024/03/02 05:51:03;;;;;;;38.23;31.70;;;7.30;88.70;;;;;;5110932;28;20178;-89
2024/03/02 05:53:28;;;;;;;40.90;32.30;;;7.40;88.50;;;;;;5108413;28;20252;-89
2024/03/02 05:55:55;;;;;;;37.83;31.47;;;7.40;88.20;;;;;;5090363;28;20206;-89
2024/03/02 06:01:06;;;;;;;40.53;31.97;;;7.40;88.10;;;;;;5108552;28;20586;-89
2024/03/02 06:03:32;;;;;;;41.13;32.33;;;7.40;88.20;;;;;;5108403;28;20173;-89
2024/03/02 06:05:58;;;;;;;41.70;31.83;;;7.40;88.10;;;;;;5105503;28;20623;-87
2024/03/02 06:08:23;;;;;;;36.30;30.30;;;7.30;88.10;;;;;;5112708;28;20175;-86
2024/03/02 06:10:49;;;;;;;39.13;30.97;;;7.30;88.20;;;;;;5112406;28;20179;-86
2024/03/02 06:13:14;;;;;;;37.30;30.67;;;7.30;88.20;;;;;;5112545;28;20194;-87
2024/03/02 06:15:40;;;;;;;36.67;31.10;;;7.30;88.30;;;;;;5112067;28;20209;-86
2024/03/02 06:18:07;;;;;;;35.70;30.30;;;7.30;88.30;;;;;;5112125;28;20179;-86
2024/03/02 06:20:33;;;;;;;37.27;30.47;;;7.30;88.20;;;;;;5112697;28;20166;-88
2024/03/02 06:22:58;;;;;;;36.20;30.37;;;7.30;88.30;;;;;;5111646;28;20250;-86
2024/03/02 06:25:24;;;;;;;35.13;30.53;;;7.30;88.20;;;;;;5111957;28;20231;-86
2024/03/02 06:27:50;;;;;;;36.47;29.67;;;7.30;88.20;;;;;;5111507;28;20174;-86
2024/03/02 06:30:15;;;;;;;35.67;29.17;;;7.30;88.20;;;;;;5111526;28;20178;-86
2024/03/02 06:32:41;;;;;;;35.90;29.60;;;7.40;88.00;;;;;;5094566;28;20258;-86
2024/03/02 06:35:09;;;;;;;35.93;29.20;;;7.40;87.90;;;;;;5111407;28;20198;-86
2024/03/02 06:37:36;;;;;;;33.57;28.80;;;7.40;87.90;;;;;;5111617;28;20163;-86
2024/03/02 06:40:02;;;;;;;35.73;29.97;;;7.40;87.80;;;;;;5094173;28;20179;-86
2024/03/02 06:42:32;;;;;;;37.17;30.07;;;7.40;87.90;;;;;;5111727;28;20693;-86
2024/03/02 06:44:58;;;;;;;40.47;36.13;;;7.20;87.80;;;;;;5111481;28;20147;-86
2024/03/02 06:47:24;;;;;;;45.30;34.70;;;7.10;88.50;;;;;;5111362;28;20261;-86
2024/03/02 06:49:49;;;;;;;38.83;34.40;;;6.90;89.00;;;;;;5111363;28;20178;-86
2024/03/02 06:52:15;;;;;;;39.77;34.83;;;6.90;89.30;;;;;;5073859;28;1066302;-86
2024/03/02 06:54:40;;;;;;;42.67;35.93;;;6.80;89.20;;;;;;5111635;28;20285;-86
2024/03/02 06:57:06;;;;;;;39.43;33.83;;;6.80;89.30;;;;;;5111444;28;20175;-86
2024/03/02 06:59:33;;;;;;;41.27;34.60;;;6.80;89.50;;;;;;5111496;28;20190;-87
2024/03/02 07:01:59;;;;;;;40.00;35.67;;;6.80;89.50;;;;;;5111069;28;20187;-86
2024/03/02 07:04:24;;;;;;;41.97;36.00;;;6.80;89.70;;;;;;5111405;28;20174;-86
2024/03/02 07:06:50;;;;;;;40.67;35.33;;;6.90;89.60;;;;;;5111638;28;20171;-87
2024/03/02 07:09:16;;;;;;;45.57;37.37;;;7.00;89.60;;;;;;5112112;28;20174;-88
2024/03/02 07:11:42;;;;;;;40.13;35.80;;;7.10;89.50;;;;;;5111619;28;20197;-86
2024/03/02 07:14:07;;;;;;;40.83;36.13;;;7.10;89.30;;;;;;5111942;28;20273;-87
2024/03/02 07:16:34;;;;;;;40.43;36.23;;;7.10;89.20;;;;;;5112258;28;20233;-86
2024/03/02 07:19:01;;;;;;;42.47;37.60;;;7.10;89.10;;;;;;5111215;28;20224;-86
2024/03/02 07:21:27;;;;;;;42.53;38.03;;;7.20;89.00;;;;;;5111801;28;20190;-86
2024/03/02 07:23:53;;;;;;;39.60;35.67;;;7.20;89.10;;;;;;5111233;28;20174;-86
2024/03/02 07:26:18;;;;;;;42.70;38.07;;;7.10;89.00;;;;;;5111276;28;20185;-86
2024/03/02 07:28:46;;;;;;;43.40;36.23;;;7.10;89.10;;;;;;5097711;28;20654;-87
2024/03/02 07:31:11;;;;;;;43.70;39.00;;;7.10;89.10;;;;;;5097384;28;20198;-87
2024/03/02 07:33:37;;;;;;;39.50;35.30;;;7.10;89.30;;;;;;5082314;28;20193;-87
2024/03/02 07:36:03;;;;;;;46.97;39.30;;;7.10;89.20;;;;;;5103953;28;20257;-86
2024/03/02 07:38:29;;;;;;;42.80;38.20;;;7.20;89.50;;;;;;5112179;28;20261;-86
2024/03/02 07:40:55;;;;;;;41.63;35.90;;;7.20;89.30;;;;;;5112874;28;20171;-86
2024/03/02 07:43:21;;;;;;;47.30;37.97;;;7.50;89.50;;;;;;5110558;28;20282;-87
2024/03/02 07:45:47;;;;;;;38.87;34.67;;;7.60;89.00;;;;;;5111649;28;20174;-87
2024/03/02 07:48:13;;;;;;;41.50;37.17;;;7.60;88.90;;;;;;5112175;28;20170;-87
2024/03/02 07:50:39;;;;;;;44.73;37.60;;;7.50;89.00;;;;;;5112187;28;20205;-86
2024/03/02 07:53:05;;;;;;;43.57;38.73;;;7.70;89.30;;;;;;5111964;28;20271;-87
2024/03/02 07:55:31;;;;;;;45.83;38.70;;;7.80;89.10;;;;;;5112438;28;20196;-87
2024/03/02 07:57:57;;;;;;;39.37;35.13;;;8.10;89.10;;;;;;5109541;28;20210;-87
2024/03/02 08:00:23;;;;;;;40.40;34.63;;;8.20;88.80;;;;;;5111948;28;20215;-87
2024/03/02 08:02:50;;;;;;;39.40;35.30;;;8.30;88.20;;;;;;5112094;28;20186;-89
2024/03/02 08:05:16;;;;;;;39.37;35.07;;;8.40;87.80;;;;;;5112098;28;20194;-89
2024/03/02 08:07:44;;;;;;;39.40;34.43;;;8.50;87.40;;;;;;5111254;28;20196;-86
2024/03/02 08:10:10;;;;;;;36.33;30.83;;;8.40;87.30;;;;;;5110672;28;20186;-86
2024/03/02 08:12:35;;;;;;;34.03;29.83;;;8.30;87.40;;;;;;5108133;28;20205;-87
2024/03/02 08:15:01;;;;;;;38.03;33.87;;;8.30;87.50;;;;;;5114355;28;20289;-87
2024/03/02 08:17:26;;;;;;;37.37;32.80;;;8.30;87.60;;;;;;5097598;28;20206;-87
2024/03/02 08:19:53;;;;;;;35.33;31.63;;;8.40;87.60;;;;;;5109397;28;20220;-86
2024/03/02 08:22:19;;;;;;;38.90;35.03;;;8.60;87.20;;;;;;5084833;28;20186;-86
2024/03/02 08:24:44;;;;;;;36.70;33.00;;;8.70;86.70;;;;;;5104328;28;20243;-87
2024/03/02 08:27:10;;;;;;;37.60;33.57;;;8.80;86.40;;;;;;5108260;28;20551;-86
2024/03/02 08:29:36;;;;;;;37.97;34.37;;;8.80;85.80;;;;;;5085784;28;20265;-89
2024/03/02 08:32:02;;;;;;;37.03;32.77;;;8.90;86.00;;;;;;5104295;28;20226;-86
2024/03/02 08:34:28;;;;;;;38.30;34.30;;;8.80;85.60;;;;;;5093101;28;20174;-87
2024/03/02 08:36:53;;;;;;;37.67;33.90;;;8.90;85.60;;;;;;5114625;28;20173;-87
2024/03/02 08:39:19;;;;;;;36.33;32.77;;;8.80;85.50;;;;;;5115110;28;20224;-87
2024/03/02 08:41:46;;;;;;;35.67;31.93;;;8.90;84.90;;;;;;5114949;28;20187;-86
2024/03/02 08:44:12;;;;;;;36.77;33.03;;;9.00;85.20;;;;;;5109225;28;20230;-88
2024/03/02 08:46:39;;;;;;;35.67;31.87;;;9.10;85.30;;;;;;5082366;28;20199;-88
2024/03/02 08:49:04;;;;;;;35.63;32.00;;;9.20;84.30;;;;;;5080616;28;20273;-89
2024/03/02 08:51:30;;;;;;;34.30;30.73;;;9.30;84.10;;;;;;5080705;28;20303;-89
2024/03/02 08:53:56;;;;;;;34.07;30.57;;;9.30;84.10;;;;;;5080304;28;20162;-87
2024/03/02 08:56:23;;;;;;;35.63;31.80;;;9.30;84.20;;;;;;5078802;28;20209;-89
2024/03/02 08:58:49;;;;;;;33.67;30.20;;;9.30;83.20;;;;;;5099935;28;20672;-88
2024/03/02 09:01:16;;;;;;;34.53;30.93;;;9.30;84.00;;;;;;5100260;28;20171;-88
2024/03/02 09:03:44;;;;;;;33.27;29.97;;;9.30;84.40;;;;;;5079517;28;20196;-89
2024/03/02 09:06:10;;;;;;;35.33;31.63;;;9.40;83.40;;;;;;5079438;28;20185;-89
2024/03/02 09:08:36;;;;;;;33.13;29.73;;;9.50;84.00;;;;;;5098061;28;20181;-90
2024/03/02 09:11:03;;;;;;;37.77;30.27;;;9.50;84.00;;;;;;5079163;28;20171;-89
2024/03/02 09:13:29;;;;;;;32.63;29.33;;;9.50;83.50;;;;;;5098760;28;20175;-90
2024/03/02 09:15:54;;;;;;;35.40;31.60;;;9.70;83.10;;;;;;5079968;28;20694;-89
2024/03/02 09:18:20;;;;;;;34.03;30.43;;;9.90;82.60;;;;;;5080542;28;20177;-89
2024/03/02 09:20:45;;;;;;;36.37;32.37;;;10.00;82.30;;;;;;5080474;28;20228;-89
2024/03/02 09:23:11;;;;;;;34.37;30.60;;;10.10;82.80;;;;;;5079428;28;20210;-88
2024/03/02 09:25:37;;;;;;;33.73;30.13;;;10.00;82.30;;;;;;5079574;28;20272;-88
2024/03/02 09:28:03;;;;;;;35.63;32.00;;;10.10;82.10;;;;;;5097461;28;20224;-89
2024/03/02 09:30:28;;;;;;;36.53;32.50;;;10.20;82.00;;;;;;5079764;28;20171;-89
2024/03/02 09:32:54;;;;;;;34.20;30.50;;;10.30;81.50;;;;;;5079558;28;20201;-89
2024/03/02 09:35:20;;;;;;;40.00;33.43;;;10.50;81.60;;;;;;5079437;28;20198;-90
2024/03/02 09:37:46;;;;;;;39.53;35.33;;;10.60;80.10;;;;;;5078918;28;20583;-89
2024/03/02 09:40:12;;;;;;;38.67;34.57;;;10.50;80.20;;;;;;5078750;28;20174;-88
2024/03/02 09:42:39;;;;;;;48.27;37.47;;;10.50;79.70;;;;;;5079019;28;20195;-88
2024/03/02 09:45:06;;;;;;;40.03;34.83;;;10.60;80.00;;;;;;5078792;28;20181;-88
2024/03/02 09:47:32;;;;;;;39.37;34.27;;;10.60;80.50;;;;;;5078981;28;20213;-88
2024/03/02 09:49:57;;;;;;;34.10;30.63;;;10.70;80.00;;;;;;5078485;28;20186;-89
2024/03/02 09:52:23;;;;;;;33.90;30.70;;;10.70;80.60;;;;;;5096463;28;20591;-89
2024/03/02 09:54:49;;;;;;;41.57;34.37;;;10.70;79.50;;;;;;5079764;28;20225;-88
2024/03/02 09:57:15;;;;;;;35.87;32.47;;;10.80;80.20;;;;;;5096876;28;20224;-88
2024/03/02 09:59:41;;;;;;;34.00;30.57;;;10.80;80.40;;;;;;5078629;28;20175;-89
2024/03/02 10:02:07;;;;;;;34.30;31.07;;;10.90;79.50;;;;;;5096841;28;20701;-88
2024/03/02 10:04:35;;;;;;;34.70;31.23;;;11.10;78.20;;;;;;5078657;28;20210;-89
2024/03/02 10:07:18;;;;;;;36.63;32.73;;;10.90;79.10;;;;;;5079030;28;20175;-89
2024/03/02 10:09:45;;;;;;;35.83;32.03;;;11.10;78.20;;;;;;5096623;28;20166;-88
2024/03/02 10:12:12;;;;;;;34.40;31.30;;;11.10;78.10;;;;;;5078576;28;20256;-89
2024/03/02 10:14:38;;;;;;;34.70;31.50;;;11.20;77.90;;;;;;5096370;28;20202;-89
2024/03/02 10:17:09;;;;;;;35.87;32.47;;;11.20;78.50;;;;;;5096009;28;20828;-89
2024/03/02 10:19:36;;;;;;;35.20;31.80;;;11.20;78.20;;;;;;5078265;28;20214;-88
2024/03/02 10:22:03;;;;;;;34.03;30.67;;;11.10;78.50;;;;;;5096938;28;20210;-91
2024/03/02 10:24:55;;;;;;;34.23;31.07;;;11.10;78.20;;;;;;5095348;28;20665;-90
2024/03/02 10:27:27;;;;;;;34.57;31.27;;;11.20;78.10;;;;;;5092343;28;20194;-91
2024/03/02 10:29:53;;;;;;;33.67;30.53;;;11.10;77.40;;;;;;5076994;28;20197;-91
2024/03/02 10:32:22;;;;;;;33.37;30.27;;;11.10;78.00;;;;;;5094904;28;20191;-90
2024/03/02 10:34:48;;;;;;;33.40;30.27;;;11.20;77.30;;;;;;5076740;28;20290;-90
2024/03/02 10:37:15;;;;;;;31.03;28.03;;;11.20;77.90;;;;;;5076498;28;20175;-90
2024/03/02 10:39:40;;;;;;;34.97;31.67;;;11.30;77.50;;;;;;5095241;28;20202;-90
2024/03/02 10:42:07;;;;;;;38.30;32.47;;;11.30;77.30;;;;;;5076848;28;20199;-89
2024/03/02 10:44:33;;;;;;;57.70;40.43;;;11.30;76.70;;;;;;5095191;28;20171;-90
2024/03/02 10:47:03;;;;;;;41.37;35.20;;;11.50;76.90;;;;;;5094983;28;20249;-89
2024/03/02 10:49:31;;;;;;;34.73;31.53;;;11.50;77.00;;;;;;5095535;28;20175;-91
2024/03/02 10:51:58;;;;;;;36.13;32.67;;;11.40;77.30;;;;;;5076324;28;20210;-89
2024/03/02 10:54:26;;;;;;;49.90;38.33;;;11.40;77.20;;;;;;5094830;28;20175;-89
2024/03/02 10:56:54;;;;;;;35.40;32.20;;;11.50;77.70;;;;;;5094513;28;20167;-90
2024/03/02 10:59:38;;;;;;;35.13;31.83;;;11.60;77.10;;;;;;5094503;28;20171;-90
2024/03/02 11:02:06;;;;;;;36.50;32.87;;;11.50;76.80;;;;;;5094484;28;20217;-90
2024/03/02 11:04:32;;;;;;;39.53;35.23;;;11.60;76.90;;;;;;5076357;28;20208;-90
2024/03/02 11:07:10;;;;;;;37.00;33.43;;;11.70;76.70;;;;;;5094295;28;20171;-89
2024/03/02 11:09:58;;;;;;;34.60;31.50;;;11.80;76.90;;;;;;5076330;28;20236;-90
2024/03/02 11:12:38;;;;;;;33.97;30.87;;;11.70;76.10;;;;;;5100741;28;20198;-88
2024/03/02 11:15:11;;;;;;;35.93;32.47;;;12.00;76.20;;;;;;5102573;28;20190;-86
2024/03/02 11:17:40;;;;;;;33.17;30.23;;;12.20;74.90;;;;;;5083597;28;20163;-86
2024/03/02 11:20:08;;;;;;;36.43;32.87;;;12.10;74.80;;;;;;5084902;28;20247;-86
2024/03/02 11:22:35;;;;;;;42.07;38.30;;;12.20;74.40;;;;;;5082046;28;20284;-86
2024/03/02 11:25:01;;;;;;;41.37;37.83;;;12.10;73.80;;;;;;5100066;28;20174;-87
2024/03/02 11:27:45;;;;;;;41.67;37.97;;;12.00;74.10;;;;;;5102096;28;20202;-86
2024/03/02 11:30:33;;;;;;;39.97;36.67;;;12.10;74.50;;;;;;5101243;28;20178;-86
2024/03/02 11:33:09;;;;;;;39.07;35.80;;;12.20;75.20;;;;;;5099951;28;20267;-87
2024/03/02 11:35:46;;;;;;;38.43;35.13;;;12.10;73.20;;;;;;5078364;28;20194;-86
2024/03/02 11:38:12;;;;;;;40.20;36.67;;;12.20;73.90;;;;;;5080158;28;20162;-87
2024/03/02 11:40:39;;;;;;;41.60;38.20;;;12.30;74.30;;;;;;5081641;28;20171;-86
2024/03/02 11:43:06;;;;;;;42.67;38.67;;;12.30;73.70;;;;;;5082484;28;20194;-86
2024/03/02 11:45:33;;;;;;;43.13;39.37;;;12.60;74.10;;;;;;5082497;28;20549;-86
2024/03/02 11:47:59;;;;;;;42.70;38.80;;;12.70;73.80;;;;;;5082131;28;20676;-86
2024/03/02 11:50:41;;;;;;;43.73;39.97;;;12.80;71.70;;;;;;5082998;28;20174;-86
2024/03/02 11:53:09;;;;;;;45.77;41.30;;;12.80;71.10;;;;;;5081223;28;20225;-86
2024/03/02 11:55:39;;;;;;;43.67;39.87;;;12.60;72.30;;;;;;5100215;28;20195;-88
2024/03/02 11:58:05;;;;;;;44.93;40.90;;;12.80;71.60;;;;;;5099169;28;20171;-87
2024/03/02 12:00:31;;;;;;;44.00;40.13;;;12.90;71.80;;;;;;5078864;28;20704;-87
2024/03/02 12:03:05;;;;;;;43.37;39.87;;;13.00;71.80;;;;;;5076750;28;20236;-87
2024/03/02 12:05:32;;;;;;;43.17;39.67;;;12.50;71.60;;;;;;5080821;28;20178;-85
2024/03/02 12:08:07;;;;;;;43.93;40.23;;;12.50;73.50;;;;;;5081325;28;20295;-86
2024/03/02 12:10:34;;;;;;;40.13;36.83;;;12.50;73.50;;;;;;5098358;28;20628;-86
2024/03/02 12:13:04;;;;;;;44.67;40.93;;;12.70;72.30;;;;;;5079449;28;20206;-86
2024/03/02 12:15:32;;;;;;;44.03;39.93;;;12.90;70.80;;;;;;5079936;28;20201;-86
2024/03/02 12:18:00;;;;;;;44.17;40.47;;;13.10;70.80;;;;;;5096458;28;20190;-86
2024/03/02 12:20:28;;;;;;;46.27;42.37;;;13.10;70.70;;;;;;5081948;28;20208;-86
2024/03/02 12:22:55;;;;;;;43.57;39.63;;;12.80;71.00;;;;;;5099453;28;20222;-86
2024/03/02 12:25:22;;;;;;;37.73;34.43;;;12.90;70.20;;;;;;5099154;28;20202;-86
2024/03/02 12:27:50;;;;;;;33.30;30.50;;;13.00;70.30;;;;;;5099456;28;20650;-86
2024/03/02 12:30:17;;;;;;;35.83;32.67;;;13.20;70.30;;;;;;5098697;28;20177;-86
2024/03/02 12:32:43;;;;;;;34.60;31.77;;;13.20;69.00;;;;;;5080930;28;20263;-86
2024/03/02 12:35:14;;;;;;;34.07;30.93;;;13.20;69.50;;;;;;5098647;28;20203;-86
2024/03/02 12:37:48;;;;;;;36.53;33.53;;;13.20;69.40;;;;;;5080364;28;20646;-87